createdAt,value
2017-10-06T00:00:15.726Z,11.10
2017-10-06T00:01:17.604Z,11.06
2017-10-06T00:02:19.432Z,11.04
2017-10-06T00:03:21.246Z,11.14
2017-10-06T00:04:23.125Z,11.07
2017-10-06T00:05:25.005Z,11.07
2017-10-06T00:06:26.884Z,11.00
2017-10-06T00:07:41.035Z,11.02
2017-10-06T00:08:42.914Z,11.14
2017-10-06T00:09:44.797Z,11.18
2017-10-06T00:10:46.676Z,11.22
2017-10-06T00:11:48.492Z,11.18
2017-10-06T00:12:50.308Z,11.35
2017-10-06T00:13:52.187Z,11.43
2017-10-06T00:14:54.074Z,11.22
2017-10-06T00:15:55.945Z,11.27
2017-10-06T00:17:10.078Z,11.10
2017-10-06T00:18:11.897Z,11.10
2017-10-06T00:19:13.714Z,10.96
2017-10-06T00:20:15.534Z,10.96
2017-10-06T00:21:17.374Z,10.96
2017-10-06T00:22:19.253Z,10.91
2017-10-06T00:23:21.134Z,10.91
2017-10-06T00:24:22.964Z,10.88
2017-10-06T00:25:24.778Z,10.88
2017-10-06T00:26:38.938Z,10.94
2017-10-06T00:27:40.811Z,10.89
2017-10-06T00:28:42.702Z,10.97
2017-10-06T00:29:44.580Z,10.94
2017-10-06T00:30:46.397Z,10.89
2017-10-06T00:31:48.224Z,10.96
2017-10-06T00:32:50.108Z,10.82
2017-10-06T00:33:51.986Z,10.81
2017-10-06T00:34:53.878Z,10.82
2017-10-06T00:36:08.030Z,10.82
2017-10-06T00:37:09.910Z,10.86
2017-10-06T00:38:11.794Z,10.82
2017-10-06T00:39:13.671Z,10.81
2017-10-06T00:40:15.492Z,10.81
2017-10-06T00:41:17.307Z,10.89
2017-10-06T00:42:19.189Z,10.92
2017-10-06T00:43:21.071Z,11.03
2017-10-06T00:44:22.958Z,10.99
2017-10-06T00:45:37.108Z,11.02
2017-10-06T00:46:38.988Z,10.91
2017-10-06T00:47:40.879Z,10.97
2017-10-06T00:48:42.757Z,11.00
2017-10-06T00:49:44.575Z,11.04
2017-10-06T00:50:46.390Z,11.17
2017-10-06T00:51:48.271Z,11.19
2017-10-06T00:52:50.151Z,11.21
2017-10-06T00:53:52.035Z,11.15
2017-10-06T00:55:06.186Z,11.10
2017-10-06T00:56:08.067Z,10.96
2017-10-06T00:57:09.947Z,10.99
2017-10-06T00:58:11.829Z,10.89
2017-10-06T00:59:13.654Z,10.94
2017-10-06T01:00:15.482Z,10.91
2017-10-06T01:01:17.367Z,10.85
2017-10-06T01:02:19.246Z,10.92
2017-10-06T01:03:21.126Z,10.97
2017-10-06T01:04:35.276Z,10.85
2017-10-06T01:05:37.155Z,10.85
2017-10-06T01:06:39.039Z,10.85
2017-10-06T01:07:40.917Z,10.96
2017-10-06T01:08:42.743Z,10.97
2017-10-06T01:09:44.560Z,10.97
2017-10-06T01:10:46.445Z,10.89
2017-10-06T01:11:48.325Z,10.76
2017-10-06T01:12:50.206Z,10.74
2017-10-06T01:14:04.357Z,10.92
2017-10-06T01:15:06.237Z,10.96
2017-10-06T01:16:08.121Z,10.91
2017-10-06T01:17:09.998Z,10.91
2017-10-06T01:18:11.816Z,10.91
2017-10-06T01:19:13.635Z,10.85
2017-10-06T01:20:15.518Z,10.76
2017-10-06T01:21:17.398Z,10.81
2017-10-06T01:22:19.278Z,10.81
2017-10-06T01:23:33.430Z,10.94
2017-10-06T01:24:35.311Z,10.91
2017-10-06T01:25:37.197Z,10.92
2017-10-06T01:26:39.068Z,10.99
2017-10-06T01:27:40.888Z,10.99
2017-10-06T01:28:42.703Z,10.99
2017-10-06T01:29:44.584Z,10.89
2017-10-06T01:30:46.464Z,10.97
2017-10-06T01:31:48.341Z,10.92
2017-10-06T01:33:02.504Z,10.91
2017-10-06T01:34:04.384Z,10.89
2017-10-06T01:35:06.269Z,10.86
2017-10-06T01:36:08.149Z,10.81
2017-10-06T01:37:09.965Z,10.79
2017-10-06T01:38:11.786Z,10.74
2017-10-06T01:39:13.678Z,10.76
2017-10-06T01:40:17.735Z,10.71
2017-10-06T01:41:19.618Z,10.66
2017-10-06T01:42:33.776Z,10.71
2017-10-06T01:43:35.659Z,10.74
2017-10-06T01:44:37.549Z,10.78
2017-10-06T01:45:39.425Z,10.71
2017-10-06T01:46:41.249Z,10.66
2017-10-06T01:47:43.082Z,10.51
2017-10-06T01:48:44.979Z,10.60
2017-10-06T01:49:46.862Z,10.68
2017-10-06T01:50:48.746Z,10.53
2017-10-06T01:52:02.903Z,10.51
2017-10-06T01:53:04.788Z,10.66
2017-10-06T01:54:06.673Z,10.76
2017-10-06T01:55:08.554Z,10.79
2017-10-06T01:56:10.377Z,10.76
2017-10-06T01:57:12.196Z,10.74
2017-10-06T01:58:14.077Z,10.71
2017-10-06T01:59:15.959Z,10.64
2017-10-06T02:00:17.847Z,10.71
2017-10-06T02:01:32.004Z,10.70
2017-10-06T02:02:33.885Z,10.82
2017-10-06T02:03:35.772Z,10.85
2017-10-06T02:04:37.651Z,10.85
2017-10-06T02:05:39.477Z,10.89
2017-10-06T02:06:41.294Z,10.76
2017-10-06T02:07:43.176Z,10.85
2017-10-06T02:08:45.060Z,10.71
2017-10-06T02:09:46.940Z,10.67
2017-10-06T02:11:01.098Z,10.61
2017-10-06T02:12:02.982Z,10.70
2017-10-06T02:13:04.867Z,10.67
2017-10-06T02:14:06.748Z,10.67
2017-10-06T02:15:08.571Z,10.64
2017-10-06T02:16:10.388Z,10.60
2017-10-06T02:17:12.266Z,10.68
2017-10-06T02:18:14.152Z,10.63
2017-10-06T02:19:16.034Z,10.67
2017-10-06T02:20:30.191Z,10.73
2017-10-06T02:21:32.074Z,10.79
2017-10-06T02:22:33.961Z,10.84
2017-10-06T02:23:35.844Z,10.74
2017-10-06T02:24:37.667Z,10.73
2017-10-06T02:25:39.485Z,10.74
2017-10-06T02:26:41.373Z,10.85
2017-10-06T02:27:43.253Z,10.89
2017-10-06T02:28:45.140Z,10.86
2017-10-06T02:29:59.296Z,10.88
2017-10-06T02:31:01.180Z,10.81
2017-10-06T02:32:03.070Z,10.76
2017-10-06T02:33:04.954Z,10.70
2017-10-06T02:34:06.770Z,10.64
2017-10-06T02:35:08.597Z,10.56
2017-10-06T02:36:10.473Z,10.61
2017-10-06T02:37:12.364Z,10.63
2017-10-06T02:38:14.220Z,10.60
2017-10-06T02:39:28.389Z,10.68
2017-10-06T02:40:30.274Z,10.56
2017-10-06T02:41:32.150Z,10.59
2017-10-06T02:42:34.032Z,10.51
2017-10-06T02:43:35.852Z,10.42
2017-10-06T02:44:37.672Z,10.42
2017-10-06T02:45:39.556Z,10.41
2017-10-06T02:46:41.441Z,10.42
2017-10-06T02:47:43.327Z,10.59
2017-10-06T02:48:57.484Z,10.52
2017-10-06T02:49:59.367Z,10.52
2017-10-06T02:51:01.254Z,10.53
2017-10-06T02:52:03.142Z,10.53
2017-10-06T02:53:04.956Z,10.53
2017-10-06T02:54:06.772Z,10.70
2017-10-06T02:55:08.653Z,10.61
2017-10-06T02:56:10.535Z,10.67
2017-10-06T02:57:12.419Z,10.59
2017-10-06T02:58:26.575Z,10.64
2017-10-06T02:59:28.456Z,10.48
2017-10-06T03:00:30.341Z,10.52
2017-10-06T03:01:32.222Z,10.56
2017-10-06T03:02:34.048Z,10.70
2017-10-06T03:03:35.867Z,10.64
2017-10-06T03:04:37.746Z,10.55
2017-10-06T03:05:39.632Z,10.63
2017-10-06T03:06:41.514Z,10.55
2017-10-06T03:07:55.670Z,10.59
2017-10-06T03:08:57.554Z,10.55
2017-10-06T03:09:59.441Z,10.48
2017-10-06T03:11:01.322Z,10.44
2017-10-06T03:12:03.145Z,10.42
2017-10-06T03:13:04.965Z,10.32
2017-10-06T03:14:06.851Z,10.33
2017-10-06T03:15:08.731Z,10.32
2017-10-06T03:16:10.612Z,10.36
2017-10-06T03:17:24.774Z,10.45
2017-10-06T03:18:26.656Z,10.47
2017-10-06T03:19:28.540Z,10.45
2017-10-06T03:20:30.420Z,10.34
2017-10-06T03:21:32.242Z,10.44
2017-10-06T03:22:34.058Z,10.55
2017-10-06T03:23:35.938Z,10.56
2017-10-06T03:24:37.822Z,10.61
2017-10-06T03:25:39.706Z,10.60
2017-10-06T03:26:53.864Z,10.73
2017-10-06T03:27:55.744Z,10.76
2017-10-06T03:28:57.635Z,10.85
2017-10-06T03:29:59.511Z,11.03
2017-10-06T03:31:01.335Z,11.14
2017-10-06T03:32:03.155Z,11.17
2017-10-06T03:33:05.034Z,11.22
2017-10-06T03:34:06.918Z,11.27
2017-10-06T03:35:08.802Z,11.39
2017-10-06T03:36:23.010Z,11.39
2017-10-06T03:37:24.894Z,11.43
2017-10-06T03:38:26.780Z,11.46
2017-10-06T03:39:28.663Z,11.35
2017-10-06T03:40:30.483Z,11.43
2017-10-06T03:41:32.304Z,11.42
2017-10-06T03:42:34.189Z,11.47
2017-10-06T03:43:36.075Z,11.46
2017-10-06T03:44:37.956Z,11.51
2017-10-06T03:45:52.112Z,11.51
2017-10-06T03:46:53.996Z,11.42
2017-10-06T03:47:55.880Z,11.46
2017-10-06T03:48:57.761Z,11.46
2017-10-06T03:49:59.586Z,11.52
2017-10-06T03:51:01.407Z,11.54
2017-10-06T03:52:03.291Z,11.61
2017-10-06T03:53:05.173Z,11.64
2017-10-06T03:54:07.053Z,11.67
2017-10-06T03:55:21.210Z,11.52
2017-10-06T03:56:23.094Z,11.60
2017-10-06T03:57:24.978Z,11.62
2017-10-06T03:58:26.861Z,11.55
2017-10-06T03:59:28.683Z,11.67
2017-10-06T04:00:30.501Z,11.62
2017-10-06T04:01:32.383Z,11.67
2017-10-06T04:02:34.267Z,11.67
2017-10-06T04:03:36.152Z,11.60
2017-10-06T04:04:50.308Z,11.61
2017-10-06T04:05:52.196Z,11.65
2017-10-06T04:06:54.075Z,11.52
2017-10-06T04:07:55.956Z,11.32
2017-10-06T04:08:57.779Z,11.14
2017-10-06T04:09:59.599Z,11.00
2017-10-06T04:11:01.496Z,10.89
2017-10-06T04:12:03.362Z,11.00
2017-10-06T04:13:05.243Z,10.91
2017-10-06T04:14:19.399Z,10.78
2017-10-06T04:15:21.282Z,10.74
2017-10-06T04:16:23.166Z,10.70
2017-10-06T04:17:25.048Z,10.67
2017-10-06T04:18:26.872Z,10.71
2017-10-06T04:19:28.693Z,10.74
2017-10-06T04:20:30.578Z,10.70
2017-10-06T04:21:32.463Z,10.73
2017-10-06T04:22:34.344Z,10.71
2017-10-06T04:23:48.503Z,10.79
2017-10-06T04:24:50.389Z,10.76
2017-10-06T04:25:52.271Z,10.74
2017-10-06T04:26:54.154Z,10.68
2017-10-06T04:27:55.974Z,10.61
2017-10-06T04:28:57.794Z,10.67
2017-10-06T04:29:59.636Z,10.71
2017-10-06T04:31:01.483Z,10.56
2017-10-06T04:32:03.368Z,10.63
2017-10-06T04:33:17.523Z,10.74
2017-10-06T04:34:19.405Z,10.63
2017-10-06T04:35:21.290Z,10.67
2017-10-06T04:36:23.172Z,10.61
2017-10-06T04:37:24.994Z,10.67
2017-10-06T04:38:26.813Z,10.68
2017-10-06T04:39:28.692Z,10.68
2017-10-06T04:40:30.576Z,10.70
2017-10-06T04:41:32.460Z,10.63
2017-10-06T04:42:46.619Z,10.73
2017-10-06T04:43:48.503Z,10.84
2017-10-06T04:44:50.387Z,10.78
2017-10-06T04:45:52.266Z,10.82
2017-10-06T04:46:54.086Z,10.82
2017-10-06T04:47:55.909Z,10.92
2017-10-06T04:48:57.791Z,10.92
2017-10-06T04:49:59.676Z,11.03
2017-10-06T04:51:01.555Z,11.07
2017-10-06T04:52:15.713Z,11.04
2017-10-06T04:53:17.597Z,11.02
2017-10-06T04:54:19.483Z,11.10
2017-10-06T04:55:21.367Z,11.15
2017-10-06T04:56:23.191Z,11.21
2017-10-06T04:57:25.011Z,11.24
2017-10-06T04:58:26.894Z,11.14
2017-10-06T04:59:28.788Z,11.09
2017-10-06T05:00:30.679Z,11.03
2017-10-06T05:01:44.836Z,11.04
2017-10-06T05:02:46.720Z,10.97
2017-10-06T05:03:48.609Z,10.85
2017-10-06T05:04:50.491Z,10.96
2017-10-06T05:05:52.317Z,10.97
2017-10-06T05:06:54.139Z,10.97
2017-10-06T05:07:56.020Z,10.88
2017-10-06T05:08:57.908Z,10.94
2017-10-06T05:09:59.792Z,10.96
2017-10-06T05:11:14.001Z,10.91
2017-10-06T05:12:15.887Z,10.92
2017-10-06T05:13:17.775Z,10.97
2017-10-06T05:14:19.665Z,10.96
2017-10-06T05:15:21.485Z,11.03
2017-10-06T05:16:23.310Z,11.06
2017-10-06T05:17:25.202Z,10.99
2017-10-06T05:18:27.085Z,10.89
2017-10-06T05:19:28.969Z,10.89
2017-10-06T05:20:43.129Z,10.99
2017-10-06T05:21:45.011Z,10.89
2017-10-06T05:22:46.900Z,10.89
2017-10-06T05:23:48.784Z,10.91
2017-10-06T05:24:50.612Z,10.78
2017-10-06T05:25:52.437Z,10.78
2017-10-06T05:26:54.318Z,10.81
2017-10-06T05:27:56.202Z,10.81
2017-10-06T05:28:58.087Z,10.78
2017-10-06T05:30:12.247Z,10.96
2017-10-06T05:31:14.128Z,11.02
2017-10-06T05:32:16.019Z,11.07
2017-10-06T05:33:17.901Z,11.11
2017-10-06T05:34:19.727Z,11.02
2017-10-06T05:35:21.548Z,10.99
2017-10-06T05:36:23.431Z,11.00
2017-10-06T05:37:25.319Z,11.22
2017-10-06T05:38:27.204Z,11.25
2017-10-06T05:39:41.365Z,11.43
2017-10-06T05:40:43.249Z,11.49
2017-10-06T05:41:45.136Z,11.40
2017-10-06T05:42:47.044Z,11.54
2017-10-06T05:43:48.850Z,11.67
2017-10-06T05:44:50.671Z,11.49
2017-10-06T05:45:52.553Z,11.43
2017-10-06T05:46:54.442Z,11.36
2017-10-06T05:47:56.323Z,11.40
2017-10-06T05:49:10.493Z,11.49
2017-10-06T05:50:12.379Z,11.49
2017-10-06T05:51:14.264Z,11.40
2017-10-06T05:52:16.151Z,11.37
2017-10-06T05:53:17.977Z,11.46
2017-10-06T05:54:19.803Z,11.58
2017-10-06T05:55:21.686Z,11.61
2017-10-06T05:56:23.573Z,11.67
2017-10-06T05:57:25.457Z,11.78
2017-10-06T05:58:39.618Z,11.86
2017-10-06T05:59:41.499Z,11.95
2017-10-06T06:00:43.385Z,11.82
2017-10-06T06:01:45.265Z,11.73
2017-10-06T06:02:47.088Z,11.73
2017-10-06T06:03:48.910Z,11.57
2017-10-06T06:04:50.795Z,11.69
2017-10-06T06:05:52.680Z,11.57
2017-10-06T06:06:54.566Z,11.52
2017-10-06T06:08:08.724Z,11.51
2017-10-06T06:09:10.610Z,11.40
2017-10-06T06:10:12.497Z,11.35
2017-10-06T06:11:14.382Z,11.32
2017-10-06T06:12:16.207Z,11.39
2017-10-06T06:13:18.039Z,11.33
2017-10-06T06:14:19.926Z,11.27
2017-10-06T06:15:21.811Z,11.40
2017-10-06T06:16:23.702Z,11.49
2017-10-06T06:17:37.862Z,11.43
2017-10-06T06:18:39.753Z,11.55
2017-10-06T06:19:41.637Z,11.61
2017-10-06T06:20:43.521Z,11.62
2017-10-06T06:21:45.347Z,11.72
2017-10-06T06:22:47.169Z,11.75
2017-10-06T06:23:49.054Z,11.83
2017-10-06T06:24:50.944Z,11.83
2017-10-06T06:25:52.828Z,11.94
2017-10-06T06:27:07.044Z,11.96
2017-10-06T06:28:08.935Z,12.01
2017-10-06T06:29:10.825Z,12.13
2017-10-06T06:30:12.710Z,12.05
2017-10-06T06:31:14.538Z,12.12
2017-10-06T06:32:16.364Z,11.90
2017-10-06T06:33:18.251Z,11.80
2017-10-06T06:34:20.139Z,11.96
2017-10-06T06:35:22.027Z,11.91
2017-10-06T06:36:36.189Z,11.85
2017-10-06T06:37:38.078Z,11.96
2017-10-06T06:38:39.965Z,11.98
2017-10-06T06:39:41.852Z,11.90
2017-10-06T06:40:43.678Z,12.02
2017-10-06T06:41:45.504Z,12.04
2017-10-06T06:42:47.392Z,11.99
2017-10-06T06:43:49.281Z,11.88
2017-10-06T06:44:51.166Z,11.85
2017-10-06T06:46:05.327Z,11.82
2017-10-06T06:47:07.213Z,11.70
2017-10-06T06:48:09.098Z,11.55
2017-10-06T06:49:10.985Z,11.43
2017-10-06T06:50:12.811Z,11.37
2017-10-06T06:51:14.638Z,11.46
2017-10-06T06:52:16.527Z,11.49
2017-10-06T06:53:18.415Z,11.42
2017-10-06T06:54:20.305Z,11.60
2017-10-06T06:55:34.464Z,11.54
2017-10-06T06:56:36.350Z,11.60
2017-10-06T06:57:38.239Z,11.54
2017-10-06T06:58:40.125Z,11.62
2017-10-06T06:59:41.952Z,11.64
2017-10-06T07:00:43.777Z,11.73
2017-10-06T07:01:45.661Z,11.78
2017-10-06T07:02:47.550Z,11.79
2017-10-06T07:03:49.438Z,11.82
2017-10-06T07:05:03.650Z,11.76
2017-10-06T07:06:05.537Z,11.85
2017-10-06T07:07:07.426Z,11.95
2017-10-06T07:08:09.315Z,11.98
2017-10-06T07:09:11.298Z,12.02
2017-10-06T07:10:13.125Z,12.09
2017-10-06T07:11:15.010Z,12.12
2017-10-06T07:12:16.896Z,12.17
2017-10-06T07:13:18.784Z,12.10
2017-10-06T07:14:33.096Z,12.16
2017-10-06T07:15:34.980Z,12.10
2017-10-06T07:16:36.868Z,12.10
2017-10-06T07:17:38.752Z,11.95
2017-10-06T07:18:40.582Z,11.91
2017-10-06T07:19:42.402Z,11.85
2017-10-06T07:20:44.286Z,11.90
2017-10-06T07:21:46.172Z,11.83
2017-10-06T07:22:48.059Z,11.86
2017-10-06T07:24:02.223Z,11.91
2017-10-06T07:25:04.112Z,11.82
2017-10-06T07:26:06.002Z,11.72
2017-10-06T07:27:07.889Z,11.72
2017-10-06T07:28:09.718Z,11.88
2017-10-06T07:29:11.545Z,11.90
2017-10-06T07:30:13.435Z,11.85
2017-10-06T07:31:15.321Z,11.91
2017-10-06T07:32:17.207Z,11.88
2017-10-06T07:33:31.369Z,11.86
2017-10-06T07:34:33.252Z,11.88
2017-10-06T07:35:35.141Z,11.94
2017-10-06T07:36:37.033Z,11.98
2017-10-06T07:37:38.863Z,11.91
2017-10-06T07:38:40.687Z,11.86
2017-10-06T07:39:42.577Z,11.82
2017-10-06T07:40:44.466Z,11.69
2017-10-06T07:41:46.353Z,11.44
2017-10-06T07:43:00.519Z,11.37
2017-10-06T07:44:02.413Z,11.32
2017-10-06T07:45:04.302Z,11.43
2017-10-06T07:46:06.190Z,11.37
2017-10-06T07:47:08.018Z,11.37
2017-10-06T07:48:09.845Z,11.25
2017-10-06T07:49:11.733Z,11.18
2017-10-06T07:50:13.623Z,11.27
2017-10-06T07:51:15.608Z,11.24
2017-10-06T07:52:29.772Z,11.42
2017-10-06T07:53:31.662Z,11.44
2017-10-06T07:54:33.549Z,11.54
2017-10-06T07:55:35.437Z,11.58
2017-10-06T07:56:37.270Z,11.60
2017-10-06T07:57:39.094Z,11.79
2017-10-06T07:58:40.984Z,11.85
2017-10-06T07:59:42.873Z,11.96
2017-10-06T08:00:44.760Z,11.98
2017-10-06T08:01:58.972Z,12.02
2017-10-06T08:03:00.858Z,12.29
2017-10-06T08:04:02.752Z,12.39
2017-10-06T08:05:04.649Z,12.41
2017-10-06T08:06:06.474Z,12.29
2017-10-06T08:07:08.299Z,12.28
2017-10-06T08:08:10.185Z,12.12
2017-10-06T08:09:12.072Z,11.94
2017-10-06T08:10:13.958Z,11.96
2017-10-06T08:11:28.125Z,11.98
2017-10-06T08:12:30.016Z,11.82
2017-10-06T08:13:31.906Z,11.82
2017-10-06T08:14:33.796Z,11.69
2017-10-06T08:15:35.627Z,11.55
2017-10-06T08:16:37.452Z,11.54
2017-10-06T08:17:39.337Z,11.39
2017-10-06T08:18:41.228Z,11.40
2017-10-06T08:19:43.120Z,11.25
2017-10-06T08:20:57.280Z,11.29
2017-10-06T08:21:59.168Z,11.32
2017-10-06T08:23:01.058Z,11.27
2017-10-06T08:24:02.950Z,11.18
2017-10-06T08:25:04.779Z,11.04
2017-10-06T08:26:06.625Z,11.09
2017-10-06T08:27:08.496Z,11.21
2017-10-06T08:28:10.386Z,11.22
2017-10-06T08:29:12.274Z,11.28
2017-10-06T08:30:26.441Z,11.29
2017-10-06T08:31:28.335Z,11.40
2017-10-06T08:32:30.225Z,11.42
2017-10-06T08:33:32.128Z,11.49
2017-10-06T08:34:33.946Z,11.62
2017-10-06T08:35:35.772Z,11.58
2017-10-06T08:36:37.659Z,11.82
2017-10-06T08:37:39.550Z,12.04
2017-10-06T08:38:41.441Z,11.99
2017-10-06T08:39:55.607Z,12.13
2017-10-06T08:40:57.500Z,12.05
2017-10-06T08:41:59.390Z,12.34
2017-10-06T08:43:01.431Z,12.46
2017-10-06T08:44:03.272Z,12.62
2017-10-06T08:45:05.090Z,12.47
2017-10-06T08:46:06.978Z,12.38
2017-10-06T08:47:08.869Z,12.60
2017-10-06T08:48:10.756Z,12.39
2017-10-06T08:49:24.920Z,12.31
2017-10-06T08:50:26.809Z,12.16
2017-10-06T08:51:28.695Z,12.04
2017-10-06T08:52:30.583Z,12.01
2017-10-06T08:53:32.414Z,11.88
2017-10-06T08:54:34.240Z,11.83
2017-10-06T08:55:36.134Z,11.78
2017-10-06T08:56:38.021Z,11.70
2017-10-06T08:57:39.910Z,11.75
2017-10-06T08:58:54.072Z,11.82
2017-10-06T08:59:55.961Z,11.94
2017-10-06T09:00:57.852Z,11.98
2017-10-06T09:01:59.746Z,11.95
2017-10-06T09:03:01.578Z,12.07
2017-10-06T09:04:03.404Z,12.04
2017-10-06T09:05:05.295Z,12.10
2017-10-06T09:06:07.162Z,12.04
2017-10-06T09:07:08.982Z,11.99
2017-10-06T09:08:23.150Z,12.07
2017-10-06T09:09:24.978Z,12.12
2017-10-06T09:10:26.810Z,12.10
2017-10-06T09:11:29.404Z,12.10
2017-10-06T09:12:31.289Z,11.96
2017-10-06T09:13:33.195Z,11.98
2017-10-06T09:14:35.088Z,12.07
2017-10-06T09:15:36.953Z,12.13
2017-10-06T09:16:38.793Z,12.10
2017-10-06T09:17:52.957Z,12.14
2017-10-06T09:18:54.848Z,12.21
2017-10-06T09:19:56.744Z,12.16
2017-10-06T09:20:58.626Z,12.20
2017-10-06T09:22:00.461Z,12.24
2017-10-06T09:23:02.787Z,12.21
2017-10-06T09:24:04.828Z,12.31
2017-10-06T09:25:06.721Z,12.53
2017-10-06T09:26:08.608Z,12.59
2017-10-06T09:27:22.833Z,12.65
2017-10-06T09:28:24.729Z,12.74
2017-10-06T09:29:26.623Z,12.77
2017-10-06T09:30:28.514Z,12.86
2017-10-06T09:31:30.349Z,12.79
2017-10-06T09:32:32.175Z,12.78
2017-10-06T09:33:34.066Z,12.75
2017-10-06T09:34:35.960Z,12.68
2017-10-06T09:35:37.845Z,12.68
2017-10-06T09:36:52.010Z,12.45
2017-10-06T09:37:53.909Z,12.17
2017-10-06T09:38:55.782Z,12.14
2017-10-06T09:39:57.668Z,12.01
2017-10-06T09:40:59.494Z,11.85
2017-10-06T09:42:01.327Z,11.82
2017-10-06T09:43:03.211Z,11.76
2017-10-06T09:44:05.098Z,11.75
2017-10-06T09:45:06.993Z,11.70
2017-10-06T09:46:21.163Z,11.67
2017-10-06T09:47:23.055Z,11.61
2017-10-06T09:48:24.948Z,11.62
2017-10-06T09:49:26.834Z,11.51
2017-10-06T09:50:28.662Z,11.62
2017-10-06T09:51:30.593Z,11.64
2017-10-06T09:52:32.481Z,11.54
2017-10-06T09:53:34.369Z,11.57
2017-10-06T09:54:36.262Z,11.43
2017-10-06T09:55:50.826Z,11.36
2017-10-06T09:56:52.678Z,11.29
2017-10-06T09:57:54.570Z,11.35
2017-10-06T09:58:56.458Z,11.44
2017-10-06T09:59:58.292Z,11.40
2017-10-06T10:01:00.124Z,11.46
2017-10-06T10:02:02.014Z,11.49
2017-10-06T10:03:03.904Z,11.58
2017-10-06T10:04:05.794Z,11.69
2017-10-06T10:05:19.960Z,11.75
2017-10-06T10:06:21.844Z,11.61
2017-10-06T10:07:23.736Z,11.79
2017-10-06T10:08:25.632Z,11.62
2017-10-06T10:09:27.466Z,11.75
2017-10-06T10:10:29.289Z,11.70
2017-10-06T10:11:31.178Z,11.70
2017-10-06T10:12:33.076Z,11.64
2017-10-06T10:13:34.953Z,11.64
2017-10-06T10:14:49.133Z,11.61
2017-10-06T10:15:51.046Z,11.51
2017-10-06T10:16:52.926Z,11.49
2017-10-06T10:17:54.821Z,11.69
2017-10-06T10:18:56.656Z,11.82
2017-10-06T10:19:58.485Z,11.98
2017-10-06T10:21:00.374Z,12.01
2017-10-06T10:22:02.259Z,12.04
2017-10-06T10:23:04.154Z,11.91
2017-10-06T10:24:18.315Z,11.90
2017-10-06T10:25:20.209Z,11.91
2017-10-06T10:26:22.100Z,11.94
2017-10-06T10:27:24.020Z,11.85
2017-10-06T10:28:25.851Z,11.86
2017-10-06T10:29:27.678Z,11.86
2017-10-06T10:30:29.570Z,11.82
2017-10-06T10:31:31.489Z,11.82
2017-10-06T10:32:33.380Z,11.95
2017-10-06T10:33:47.559Z,12.01
2017-10-06T10:34:49.443Z,11.90
2017-10-06T10:35:51.326Z,11.78
2017-10-06T10:36:53.214Z,11.70
2017-10-06T10:37:55.047Z,11.46
2017-10-06T10:38:56.875Z,11.46
2017-10-06T10:39:58.763Z,11.36
2017-10-06T10:41:00.650Z,11.27
2017-10-06T10:42:02.537Z,11.17
2017-10-06T10:43:16.705Z,11.25
2017-10-06T10:44:18.598Z,11.33
2017-10-06T10:45:20.488Z,11.24
2017-10-06T10:46:22.384Z,11.29
2017-10-06T10:47:24.207Z,11.40
2017-10-06T10:48:26.045Z,11.46
2017-10-06T10:49:27.924Z,11.60
2017-10-06T10:50:29.814Z,11.69
2017-10-06T10:51:31.703Z,11.76
2017-10-06T10:52:45.871Z,11.94
2017-10-06T10:53:47.767Z,12.09
2017-10-06T10:54:49.664Z,12.12
2017-10-06T10:55:51.568Z,12.20
2017-10-06T10:56:53.389Z,12.50
2017-10-06T10:57:55.218Z,12.60
2017-10-06T10:58:57.106Z,12.85
2017-10-06T10:59:58.994Z,12.96
2017-10-06T11:01:00.884Z,13.07
2017-10-06T11:02:15.056Z,13.22
2017-10-06T11:03:16.944Z,13.22
2017-10-06T11:04:18.851Z,13.30
2017-10-06T11:05:20.734Z,13.30
2017-10-06T11:06:22.566Z,13.28
2017-10-06T11:07:24.391Z,13.22
2017-10-06T11:08:26.278Z,13.22
2017-10-06T11:09:28.170Z,13.39
2017-10-06T11:10:30.060Z,13.51
2017-10-06T11:11:44.227Z,13.55
2017-10-06T11:12:46.117Z,13.46
2017-10-06T11:13:48.007Z,13.55
2017-10-06T11:14:49.911Z,13.49
2017-10-06T11:15:51.740Z,13.73
2017-10-06T11:16:53.584Z,13.84
2017-10-06T11:17:55.473Z,13.96
2017-10-06T11:18:57.359Z,14.17
2017-10-06T11:19:59.247Z,14.17
2017-10-06T11:21:13.534Z,14.04
2017-10-06T11:22:15.414Z,14.09
2017-10-06T11:23:17.320Z,14.22
2017-10-06T11:24:19.199Z,14.52
2017-10-06T11:25:21.031Z,14.60
2017-10-06T11:26:22.862Z,14.72
2017-10-06T11:27:24.756Z,14.83
2017-10-06T11:28:26.651Z,14.91
2017-10-06T11:29:28.539Z,14.99
2017-10-06T11:30:42.707Z,15.02
2017-10-06T11:31:44.597Z,14.99
2017-10-06T11:32:46.489Z,14.86
2017-10-06T11:33:48.380Z,14.83
2017-10-06T11:34:50.211Z,14.80
2017-10-06T11:35:52.040Z,14.58
2017-10-06T11:36:53.934Z,14.54
2017-10-06T11:37:55.824Z,14.39
2017-10-06T11:38:57.715Z,14.35
2017-10-06T11:40:11.944Z,14.21
2017-10-06T11:41:13.835Z,14.06
2017-10-06T11:42:15.727Z,14.09
2017-10-06T11:43:17.614Z,14.04
2017-10-06T11:44:19.446Z,14.02
2017-10-06T11:45:21.273Z,13.66
2017-10-06T11:46:23.160Z,13.42
2017-10-06T11:47:25.050Z,13.11
2017-10-06T11:48:26.939Z,13.03
2017-10-06T11:49:41.106Z,12.92
2017-10-06T11:50:42.999Z,12.92
2017-10-06T11:51:44.891Z,12.86
2017-10-06T11:52:46.780Z,12.96
2017-10-06T11:53:48.610Z,13.00
2017-10-06T11:54:50.438Z,13.19
2017-10-06T11:55:52.329Z,13.25
2017-10-06T11:56:54.221Z,13.11
2017-10-06T11:57:56.111Z,13.19
2017-10-06T11:59:10.274Z,13.10
2017-10-06T12:00:12.171Z,13.10
2017-10-06T12:01:14.062Z,13.12
2017-10-06T12:02:15.957Z,12.93
2017-10-06T12:03:17.779Z,12.74
2017-10-06T12:04:19.607Z,12.68
2017-10-06T12:05:21.495Z,12.67
2017-10-06T12:06:23.384Z,12.52
2017-10-06T12:07:25.270Z,12.39
2017-10-06T12:08:39.434Z,12.28
2017-10-06T12:09:41.431Z,12.17
2017-10-06T12:10:43.796Z,12.17
2017-10-06T12:11:45.650Z,12.07
2017-10-06T12:12:47.479Z,11.91
2017-10-06T12:13:49.304Z,11.98
2017-10-06T12:14:51.196Z,11.91
2017-10-06T12:15:53.485Z,11.88
2017-10-06T12:16:55.513Z,11.86
2017-10-06T12:18:09.714Z,12.01
2017-10-06T12:19:11.602Z,11.90
2017-10-06T12:20:13.491Z,11.90
2017-10-06T12:21:15.717Z,11.99
2017-10-06T12:22:17.682Z,11.95
2017-10-06T12:23:19.517Z,11.96
2017-10-06T12:24:21.400Z,12.10
2017-10-06T12:25:23.297Z,12.12
2017-10-06T12:26:25.188Z,12.17
2017-10-06T12:27:39.354Z,12.17
2017-10-06T12:28:41.247Z,12.16
2017-10-06T12:29:43.140Z,12.20
2017-10-06T12:30:45.024Z,12.16
2017-10-06T12:31:46.853Z,12.07
2017-10-06T12:32:48.683Z,12.12
2017-10-06T12:33:50.573Z,12.16
2017-10-06T12:34:52.470Z,12.07
2017-10-06T12:35:54.353Z,12.12
2017-10-06T12:37:08.497Z,12.16
2017-10-06T12:38:10.324Z,12.12
2017-10-06T12:39:12.156Z,12.14
2017-10-06T12:40:13.984Z,12.16
2017-10-06T12:41:15.816Z,12.31
2017-10-06T12:42:17.647Z,12.49
2017-10-06T12:43:19.476Z,12.42
2017-10-06T12:44:21.307Z,12.45
2017-10-06T12:45:23.136Z,12.41
2017-10-06T12:46:37.321Z,12.53
2017-10-06T12:47:39.207Z,12.89
2017-10-06T12:48:41.096Z,13.38
2017-10-06T12:49:42.986Z,14.00
2017-10-06T12:50:44.816Z,14.51
2017-10-06T12:51:46.639Z,14.95
2017-10-06T12:52:48.508Z,15.39
2017-10-06T12:53:50.322Z,15.62
2017-10-06T12:54:52.142Z,15.72
2017-10-06T12:56:06.310Z,16.04
2017-10-06T12:57:08.194Z,16.15
2017-10-06T12:58:10.086Z,16.30
2017-10-06T12:59:11.978Z,16.43
2017-10-06T13:00:13.803Z,16.79
2017-10-06T13:01:15.624Z,16.93
2017-10-06T13:02:17.517Z,17.15
2017-10-06T13:03:19.407Z,17.37
2017-10-06T13:03:35.329Z,17.34
2017-10-06T13:04:37.241Z,17.36
2017-10-06T13:05:39.114Z,17.46
2017-10-06T13:06:41.007Z,17.34
2017-10-06T13:07:42.836Z,17.16
2017-10-06T13:08:44.667Z,16.68
2017-10-06T13:09:46.561Z,16.02
2017-10-06T13:10:48.457Z,15.50
2017-10-06T13:11:50.348Z,14.89
2017-10-06T13:13:04.947Z,14.43
2017-10-06T13:14:06.930Z,14.09
2017-10-06T13:15:09.316Z,13.77
2017-10-06T13:16:11.253Z,13.49
2017-10-06T13:17:13.080Z,13.15
2017-10-06T13:18:14.910Z,12.96
2017-10-06T13:19:16.800Z,12.87
2017-10-06T13:20:18.707Z,12.92
2017-10-06T13:21:20.600Z,12.93
2017-10-06T13:22:34.802Z,12.89
2017-10-06T13:23:36.696Z,12.68
2017-10-06T13:24:38.587Z,12.64
2017-10-06T13:25:40.897Z,12.67
2017-10-06T13:26:42.794Z,12.62
2017-10-06T13:27:44.612Z,12.68
2017-10-06T13:28:46.506Z,12.70
2017-10-06T13:29:48.393Z,12.79
2017-10-06T13:30:50.273Z,12.78
2017-10-06T13:32:04.444Z,12.68
2017-10-06T13:33:06.351Z,12.65